Sharbot Lake, Canada
Current Conditions -  °F | °C
As of 3:00 PM on Wednesday 17 Dec 2014 (Local Time) from CYGK Reporting Station
Overcast Overcast  
Wind Chill: 28°   Ceiling: 800
Heat Index: 37°   Visibility: 15mi
Dew Point: 36°   Wind: 16mph
Humidity: 93%   Direction: 250°WSW
Pressure: 29.79"   Gusts: NA
Location:  44.77°N, 76.68°W
Report Text: CYGK 172000Z 25014KT 15SM BKN008 OVC020 03/02 A2979 RMK SF7SC1 SLP092
Loading
Personal Weather Stations






























Interactive Weather Map New forecast layout! Learn more

10-Day Weather Forecast

Advertisements
Track Severe Weather on mobile